Time;durP1;ratioP1;P1;durP2;ratioP2;P2;SDS_P1;SDS_P2;PMS_P1;PMS_P2;Temp;Humidity;BMP_temperature;BMP_pressure;BME280_temperature;BME280_humidity;BME280_pressure;Samples;Min_cycle;Max_cycle;Signal;HPM_P1;HPM_P2
2021/01/22 15:32:34;;;;;;;6.65;1.30;;;5.80;99.90;;;;;;5044486;28;20412;-78
2021/01/22 15:35:01;;;;;;;6.95;0.80;;;5.40;99.90;;;;;;4970226;28;111541;-78
2021/01/22 15:37:32;;;;;;;10.73;2.15;;;5.40;99.90;;;;;;4998745;28;20049;-77
2021/01/22 15:39:59;;;;;;;26.40;2.00;;;5.40;99.90;;;;;;5005892;28;20058;-78
2021/01/22 15:42:28;;;;;;;9.57;1.17;;;5.40;99.90;;;;;;4989137;28;20160;-77
2021/01/22 15:44:54;;;;;;;11.27;1.95;;;5.40;99.90;;;;;;5000031;28;20115;-77
2021/01/22 15:47:20;;;;;;;5.88;1.27;;;5.40;99.90;;;;;;4995978;28;20050;-79
2021/01/22 15:49:47;;;;;;;7.18;1.52;;;5.30;99.90;;;;;;4994778;28;20046;-77
2021/01/22 15:52:13;;;;;;;9.63;1.25;;;5.30;99.90;;;;;;4991725;28;20054;-78
2021/01/22 15:54:40;;;;;;;12.55;1.80;;;5.30;99.90;;;;;;4993614;28;20068;-79
2021/01/22 15:57:06;;;;;;;4.78;1.02;;;5.30;99.90;;;;;;4992529;28;20061;-78
2021/01/22 15:59:32;;;;;;;12.98;1.88;;;5.20;99.90;;;;;;4993546;28;20062;-78
2021/01/22 16:01:59;;;;;;;10.32;1.80;;;5.20;99.90;;;;;;4987927;28;20056;-77
2021/01/22 16:04:25;;;;;;;8.80;1.48;;;5.10;99.90;;;;;;4989969;28;20046;-78
2021/01/22 16:06:52;;;;;;;4.90;1.25;;;5.10;99.90;;;;;;4990414;28;20052;-78
2021/01/22 16:09:18;;;;;;;3.35;0.93;;;5.00;99.90;;;;;;5021549;28;20061;-79
2021/01/22 16:11:44;;;;;;;9.95;1.70;;;5.00;99.90;;;;;;4996304;28;20183;-79
2021/01/22 16:14:11;;;;;;;10.32;1.30;;;5.00;99.90;;;;;;4991553;28;20416;-79
2021/01/22 16:16:37;;;;;;;7.97;1.10;;;4.90;99.90;;;;;;5002022;28;20052;-79
2021/01/22 16:19:03;;;;;;;7.03;0.95;;;4.90;99.90;;;;;;4997609;28;20050;-79
2021/01/22 16:21:29;;;;;;;9.00;1.25;;;4.90;99.90;;;;;;4992348;28;20054;-79
2021/01/22 16:23:56;;;;;;;8.15;1.40;;;4.80;99.90;;;;;;4986913;28;20054;-78
2021/01/22 16:26:24;;;;;;;11.02;1.38;;;4.80;99.90;;;;;;4981805;28;20065;-79
2021/01/22 16:28:50;;;;;;;14.55;1.77;;;4.80;99.90;;;;;;5010749;28;20062;-79
2021/01/22 16:31:16;;;;;;;8.70;1.75;;;4.70;99.90;;;;;;4994708;28;20050;-79
2021/01/22 16:33:42;;;;;;;11.18;1.20;;;4.70;99.90;;;;;;4998425;28;20050;-79
2021/01/22 16:36:09;;;;;;;11.88;1.60;;;4.60;99.90;;;;;;4996125;28;20042;-79
2021/01/22 16:38:35;;;;;;;9.52;1.35;;;4.60;99.90;;;;;;4998144;28;20561;-78
2021/01/22 16:41:01;;;;;;;6.10;1.23;;;4.50;99.90;;;;;;4996658;28;20056;-78
2021/01/22 16:43:28;;;;;;;11.52;1.48;;;4.40;99.90;;;;;;4987152;28;20101;-77
2021/01/22 16:45:54;;;;;;;6.60;1.33;;;4.30;99.90;;;;;;4980245;28;20464;-78
2021/01/22 16:48:20;;;;;;;10.38;1.85;;;4.20;99.90;;;;;;4982998;28;20054;-81
2021/01/22 16:50:46;;;;;;;10.95;2.25;;;4.20;99.90;;;;;;4975083;28;20077;-77
2021/01/22 16:53:12;;;;;;;14.55;3.25;;;4.10;99.90;;;;;;4977932;28;20060;-78
2021/01/22 16:55:39;;;;;;;7.07;2.13;;;4.00;99.90;;;;;;4980188;28;20061;-77
2021/01/22 16:58:05;;;;;;;10.15;2.53;;;3.90;99.90;;;;;;4975104;28;20478;-78
2021/01/22 17:00:31;;;;;;;20.13;3.92;;;3.90;99.90;;;;;;4977031;28;20050;-77
2021/01/22 17:02:57;;;;;;;8.70;2.90;;;3.80;99.90;;;;;;4979460;28;20046;-79
2021/01/22 17:05:23;;;;;;;9.90;3.20;;;3.80;99.90;;;;;;4978552;28;20047;-79
2021/01/22 17:07:50;;;;;;;14.82;3.15;;;3.70;99.90;;;;;;4986532;28;20114;-79
2021/01/22 17:10:16;;;;;;;27.35;3.95;;;3.70;99.90;;;;;;4985086;28;20418;-78
2021/01/22 17:12:42;;;;;;;19.23;4.03;;;3.70;99.90;;;;;;4977214;28;20054;-78
2021/01/22 17:15:09;;;;;;;13.18;3.45;;;3.70;99.90;;;;;;4975536;28;20393;-80
2021/01/22 17:17:35;;;;;;;13.13;3.55;;;3.60;99.90;;;;;;4975426;28;21359;-76
2021/01/22 17:20:02;;;;;;;18.80;4.60;;;3.60;99.90;;;;;;4976163;28;20054;-76
2021/01/22 17:22:29;;;;;;;11.70;3.30;;;3.60;99.90;;;;;;4977321;28;20168;-77
2021/01/22 17:24:56;;;;;;;10.35;3.03;;;3.50;99.90;;;;;;4975343;28;20069;-76
2021/01/22 17:27:22;;;;;;;15.23;4.15;;;3.50;99.90;;;;;;4978791;28;20478;-75
2021/01/22 17:29:48;;;;;;;11.15;3.10;;;3.50;99.90;;;;;;4975795;28;20043;-75
2021/01/22 17:32:15;;;;;;;10.93;3.35;;;3.50;99.90;;;;;;4977835;28;20080;-77
2021/01/22 17:34:49;;;;;;;11.25;3.65;;;3.50;99.90;;;;;;4978580;28;20062;-77
2021/01/22 17:37:18;;;;;;;11.18;3.63;;;3.50;99.90;;;;;;4979754;28;20457;-77
2021/01/22 17:39:45;;;;;;;12.93;3.72;;;3.40;99.90;;;;;;4978763;28;20076;-78
2021/01/22 17:42:11;;;;;;;13.25;4.03;;;3.40;99.90;;;;;;4988052;28;20486;-78
2021/01/22 17:44:42;;;;;;;13.15;3.95;;;3.40;99.90;;;;;;4984772;28;20050;-78
2021/01/22 17:47:08;;;;;;;14.00;3.72;;;3.40;99.90;;;;;;4983549;28;20054;-78
2021/01/22 17:49:35;;;;;;;14.82;3.10;;;3.30;99.90;;;;;;4984438;28;20129;-78
2021/01/22 17:52:01;;;;;;;12.73;3.58;;;3.30;99.90;;;;;;4979966;28;20046;-78
2021/01/22 17:54:27;;;;;;;11.25;3.40;;;3.20;99.90;;;;;;4978474;28;20050;-77
2021/01/22 17:56:53;;;;;;;11.63;3.55;;;3.20;99.90;;;;;;4981131;28;20050;-78
2021/01/22 17:59:19;;;;;;;14.90;4.75;;;3.20;99.90;;;;;;4981359;28;20599;-78
2021/01/22 18:01:46;;;;;;;13.20;4.35;;;3.10;99.90;;;;;;4982893;28;20082;-78
2021/01/22 18:04:13;;;;;;;12.27;3.63;;;3.10;99.90;;;;;;4983872;28;20046;-78
2021/01/22 18:06:40;;;;;;;20.20;4.32;;;3.10;99.90;;;;;;4978403;28;20064;-77
2021/01/22 18:09:06;;;;;;;20.02;4.65;;;3.10;99.90;;;;;;4979065;28;20058;-80
2021/01/22 18:11:32;;;;;;;11.57;2.95;;;3.00;99.90;;;;;;4981586;28;20054;-77
2021/01/22 18:13:59;;;;;;;15.35;3.50;;;3.00;99.90;;;;;;4984657;28;20096;-80
2021/01/22 18:16:42;;;;;;;12.70;3.42;;;3.00;99.90;;;;;;4979000;28;20045;-77
2021/01/22 18:19:08;;;;;;;10.82;3.20;;;3.00;99.90;;;;;;4978932;28;20136;-79
2021/01/22 18:21:35;;;;;;;16.33;3.90;;;3.00;99.90;;;;;;4981427;28;20403;-77
2021/01/22 18:24:01;;;;;;;19.88;4.35;;;3.00;99.90;;;;;;4983200;28;20498;-77
2021/01/22 18:26:27;;;;;;;8.52;4.47;;;2.90;99.90;;;;;;4981380;28;20413;-76
2021/01/22 18:28:54;;;;;;;6.78;3.35;;;3.00;99.90;;;;;;4979137;28;20056;-78
2021/01/22 18:31:20;;;;;;;18.23;3.70;;;3.00;99.90;;;;;;4974539;28;20496;-77
2021/01/22 18:33:47;;;;;;;12.02;4.05;;;3.00;99.90;;;;;;4981293;28;20133;-78
2021/01/22 18:36:13;;;;;;;13.15;3.88;;;3.00;99.90;;;;;;4930052;28;20136;-79
2021/01/22 18:38:40;;;;;;;14.50;4.00;;;3.00;99.90;;;;;;4979139;28;20108;-77
2021/01/22 18:41:06;;;;;;;12.13;3.70;;;2.90;99.90;;;;;;4982612;28;20078;-77
2021/01/22 18:43:32;;;;;;;10.88;4.45;;;2.90;99.90;;;;;;4983381;28;20391;-78
2021/01/22 18:45:59;;;;;;;17.48;5.40;;;2.80;99.90;;;;;;4982668;28;20137;-79
2021/01/22 18:48:25;;;;;;;14.70;4.25;;;2.80;99.90;;;;;;4980291;28;20059;-79
2021/01/22 18:50:51;;;;;;;15.40;3.95;;;2.80;99.90;;;;;;4985632;28;20097;-79
2021/01/22 18:53:18;;;;;;;15.45;3.95;;;2.80;99.90;;;;;;4969090;28;20054;-78
2021/01/22 18:55:44;;;;;;;20.58;4.40;;;2.70;99.90;;;;;;4981298;28;20137;-78
2021/01/22 18:58:10;;;;;;;12.13;4.20;;;2.70;99.90;;;;;;4964752;28;20456;-79
2021/01/22 19:00:36;;;;;;;15.80;4.25;;;2.70;99.90;;;;;;4970418;28;20065;-78
2021/01/22 19:03:03;;;;;;;17.10;6.35;;;2.60;99.90;;;;;;4982516;28;20054;-78
2021/01/22 19:05:30;;;;;;;16.65;5.35;;;2.60;99.90;;;;;;4980192;28;20181;-77
2021/01/22 19:07:56;;;;;;;10.85;4.32;;;2.70;99.90;;;;;;4978527;28;20133;-78
2021/01/22 19:10:23;;;;;;;15.63;4.88;;;2.70;99.90;;;;;;4979510;28;20093;-77
2021/01/22 19:12:49;;;;;;;11.27;4.53;;;2.60;99.90;;;;;;4973338;28;20054;-78
2021/01/22 19:15:15;;;;;;;22.27;4.70;;;2.60;99.90;;;;;;4978221;28;20568;-80
2021/01/22 19:17:41;;;;;;;13.95;4.25;;;2.60;99.90;;;;;;4970135;28;20122;-78
2021/01/22 19:20:08;;;;;;;12.50;5.35;;;2.60;99.90;;;;;;4977433;28;20050;-78
2021/01/22 19:22:39;;;;;;;15.68;4.88;;;2.50;99.90;;;;;;4980440;28;20050;-78
2021/01/22 19:25:06;;;;;;;16.30;4.75;;;2.50;99.90;;;;;;4977056;28;20077;-79
2021/01/22 19:27:32;;;;;;;16.65;4.40;;;2.50;99.90;;;;;;4980236;28;20064;-80
2021/01/22 19:29:58;;;;;;;18.77;4.93;;;2.40;99.90;;;;;;4981316;28;20057;-79
2021/01/22 19:32:25;;;;;;;16.45;4.50;;;2.40;99.90;;;;;;4981260;28;20449;-79
2021/01/22 19:34:51;;;;;;;21.08;4.47;;;2.50;99.90;;;;;;4979768;28;20054;-79
2021/01/22 19:37:18;;;;;;;8.32;3.95;;;2.50;99.90;;;;;;4975625;28;20125;-79
2021/01/22 19:39:45;;;;;;;22.30;5.03;;;2.50;99.90;;;;;;4979320;28;20142;-77
2021/01/22 19:42:11;;;;;;;14.40;4.75;;;2.50;99.90;;;;;;4978865;28;20054;-78
2021/01/22 19:44:38;;;;;;;14.43;6.45;;;2.50;99.90;;;;;;4979145;28;20050;-77
2021/01/22 19:47:07;;;;;;;22.83;6.40;;;2.50;99.90;;;;;;4969736;28;20055;-77
2021/01/22 19:49:37;;;;;;;16.13;7.50;;;2.50;99.90;;;;;;4969500;28;20047;-77
2021/01/22 19:52:03;;;;;;;20.02;10.38;;;2.50;99.90;;;;;;5000241;28;20140;-79
2021/01/22 19:54:29;;;;;;;20.33;8.15;;;2.50;99.90;;;;;;4984318;28;20410;-78
2021/01/22 19:56:55;;;;;;;22.23;7.40;;;2.50;99.90;;;;;;4983425;28;20471;-78
2021/01/22 19:59:22;;;;;;;18.98;7.97;;;2.50;99.90;;;;;;4982112;28;20058;-78
2021/01/22 20:01:48;;;;;;;25.42;8.80;;;2.50;99.90;;;;;;4980884;28;20579;-77
2021/01/22 20:04:14;;;;;;;24.77;8.40;;;2.40;99.90;;;;;;4984480;28;20049;-78
2021/01/22 20:06:40;;;;;;;19.67;7.95;;;2.40;99.90;;;;;;4977401;28;20050;-79
2021/01/22 20:09:10;;;;;;;16.50;8.45;;;2.40;99.90;;;;;;4979879;28;20530;-78
2021/01/22 20:11:36;;;;;;;28.48;9.18;;;2.40;99.90;;;;;;4979801;28;20140;-77
2021/01/22 20:14:02;;;;;;;25.02;9.50;;;2.40;99.90;;;;;;4979035;28;20054;-77
2021/01/22 20:16:32;;;;;;;27.90;9.38;;;2.40;99.90;;;;;;4982127;28;20141;-79
2021/01/22 20:18:58;;;;;;;20.58;8.77;;;2.40;99.90;;;;;;4987200;28;20054;-79
2021/01/22 20:21:25;;;;;;;22.83;9.88;;;2.40;99.90;;;;;;4989184;28;20144;-79
2021/01/22 20:23:51;;;;;;;28.73;9.10;;;2.40;99.90;;;;;;4988298;28;20925;-78
2021/01/22 20:26:17;;;;;;;26.42;8.35;;;2.40;99.90;;;;;;4986949;28;20062;-78
2021/01/22 20:28:43;;;;;;;22.50;8.10;;;2.40;99.90;;;;;;4975700;28;20113;-78
2021/01/22 20:31:10;;;;;;;24.70;8.70;;;2.40;99.90;;;;;;4988670;28;20050;-78
2021/01/22 20:33:38;;;;;;;26.30;8.73;;;2.40;99.90;;;;;;4987771;28;20114;-78
2021/01/22 20:36:05;;;;;;;32.60;10.20;;;2.40;99.90;;;;;;4988270;28;20042;-78
2021/01/22 20:38:31;;;;;;;23.48;11.13;;;2.40;99.90;;;;;;4988520;28;20064;-78
2021/01/22 20:40:57;;;;;;;30.17;12.68;;;2.40;99.90;;;;;;4989378;28;20564;-78
2021/01/22 20:43:24;;;;;;;27.95;11.60;;;2.50;99.90;;;;;;4988196;28;20057;-78
2021/01/22 20:45:50;;;;;;;26.30;10.90;;;2.50;99.90;;;;;;4985406;28;20055;-77
2021/01/22 20:48:17;;;;;;;24.35;11.40;;;2.50;99.90;;;;;;4973113;28;20053;-78
2021/01/22 20:50:46;;;;;;;34.95;12.85;;;2.50;99.90;;;;;;4978434;28;20054;-78
2021/01/22 20:53:12;;;;;;;32.67;11.55;;;2.50;99.90;;;;;;4977846;28;20402;-77
2021/01/22 20:55:42;;;;;;;20.75;11.88;;;2.50;99.90;;;;;;4977417;28;20544;-77
2021/01/22 20:58:14;;;;;;;32.17;11.88;;;2.50;99.90;;;;;;4963111;28;20578;-77
2021/01/22 21:00:40;;;;;;;30.48;13.70;;;2.50;99.90;;;;;;4983129;28;20058;-79
2021/01/22 21:03:06;;;;;;;24.25;12.30;;;2.40;99.90;;;;;;4985827;28;20413;-78
2021/01/22 21:05:34;;;;;;;30.02;13.35;;;2.40;99.90;;;;;;4983799;28;20557;-80
2021/01/22 21:08:03;;;;;;;31.00;13.43;;;2.40;99.90;;;;;;4989217;28;20050;-78
2021/01/22 21:10:32;;;;;;;34.28;13.50;;;2.40;99.90;;;;;;4977687;28;20113;-77
2021/01/22 21:12:58;;;;;;;37.60;14.95;;;2.40;99.90;;;;;;4972386;28;20053;-77
2021/01/22 21:15:24;;;;;;;30.02;13.73;;;2.40;99.90;;;;;;4982681;28;20058;-77
2021/01/22 21:17:50;;;;;;;36.72;14.15;;;2.40;99.90;;;;;;4974210;28;20057;-77
2021/01/22 21:20:17;;;;;;;37.03;14.27;;;2.30;99.90;;;;;;4972417;28;20054;-77
2021/01/22 21:22:44;;;;;;;31.65;14.18;;;2.30;99.90;;;;;;4975735;28;20061;-79
2021/01/22 21:25:12;;;;;;;37.65;17.02;;;2.30;99.90;;;;;;4970777;28;20141;-77
2021/01/22 21:27:39;;;;;;;49.42;19.15;;;2.30;99.90;;;;;;4967143;28;20706;-77
2021/01/22 21:30:06;;;;;;;34.47;17.27;;;2.30;99.90;;;;;;4968596;28;20146;-77
2021/01/22 21:32:33;;;;;;;34.20;16.65;;;2.30;99.90;;;;;;4974441;28;20070;-79
2021/01/22 21:35:02;;;;;;;35.42;16.65;;;2.20;99.90;;;;;;4973136;28;20137;-79
2021/01/22 21:37:29;;;;;;;39.53;16.27;;;2.20;99.90;;;;;;4978649;28;20050;-79
2021/01/22 21:39:55;;;;;;;43.47;17.75;;;2.20;99.90;;;;;;4976982;28;20507;-79
2021/01/22 21:42:21;;;;;;;38.83;18.52;;;2.20;99.90;;;;;;4973683;28;20061;-79
2021/01/22 21:44:48;;;;;;;35.47;16.55;;;2.20;99.90;;;;;;4980883;28;20063;-79
2021/01/22 21:47:14;;;;;;;36.72;16.85;;;2.20;99.90;;;;;;4957337;28;20119;-77
2021/01/22 21:49:40;;;;;;;36.28;16.67;;;2.20;99.90;;;;;;4952379;28;20066;-78
2021/01/22 21:52:06;;;;;;;44.17;18.35;;;2.20;99.90;;;;;;4976598;28;20060;-79
2021/01/22 21:54:35;;;;;;;41.53;18.77;;;2.10;99.90;;;;;;4978606;28;20058;-78
2021/01/22 21:57:02;;;;;;;40.03;18.92;;;2.10;99.90;;;;;;4980694;28;20051;-79
2021/01/22 21:59:28;;;;;;;42.58;19.60;;;2.10;99.90;;;;;;4983614;28;20151;-78
2021/01/22 22:01:56;;;;;;;51.53;18.98;;;2.00;99.90;;;;;;4973181;28;20055;-78
2021/01/22 22:04:23;;;;;;;45.80;18.88;;;2.00;99.90;;;;;;4966153;28;20130;-78
2021/01/22 22:06:49;;;;;;;45.15;18.88;;;2.00;99.90;;;;;;4979008;28;20058;-78
2021/01/22 22:09:15;;;;;;;37.53;19.15;;;2.00;99.90;;;;;;4980184;28;20045;-78
2021/01/22 22:11:41;;;;;;;41.67;20.63;;;2.00;99.90;;;;;;4974972;28;20056;-78
2021/01/22 22:14:08;;;;;;;47.67;19.52;;;2.00;99.90;;;;;;4978525;28;20538;-78
2021/01/22 22:16:36;;;;;;;40.38;19.92;;;1.90;99.90;;;;;;4993492;28;20062;-78
2021/01/22 22:19:02;;;;;;;44.70;20.02;;;2.00;99.90;;;;;;4980156;28;20082;-78
2021/01/22 22:21:29;;;;;;;42.08;19.70;;;1.90;99.90;;;;;;4975274;28;20100;-78
2021/01/22 22:23:55;;;;;;;47.30;22.75;;;2.00;99.90;;;;;;4971720;28;20046;-78
2021/01/22 22:26:27;;;;;;;56.17;22.15;;;1.90;99.90;;;;;;4972093;28;20050;-78
2021/01/22 22:28:53;;;;;;;46.33;21.95;;;1.90;99.90;;;;;;4992360;28;20062;-78
2021/01/22 22:31:22;;;;;;;50.83;21.48;;;1.90;99.90;;;;;;4974262;28;20054;-78
2021/01/22 22:33:50;;;;;;;39.08;20.45;;;1.90;99.90;;;;;;4982141;28;20063;-78
2021/01/22 22:36:17;;;;;;;45.90;21.05;;;1.90;99.90;;;;;;4972150;28;20046;-78
2021/01/22 22:38:44;;;;;;;54.03;22.10;;;1.80;99.90;;;;;;4976215;28;20052;-78
2021/01/22 22:41:10;;;;;;;44.13;20.75;;;1.80;99.90;;;;;;4965303;28;20050;-78
2021/01/22 22:43:36;;;;;;;50.80;21.58;;;1.70;99.90;;;;;;4981844;28;20066;-78
2021/01/22 22:46:03;;;;;;;64.90;29.15;;;1.70;99.90;;;;;;4983060;28;20069;-78
2021/01/22 22:48:29;;;;;;;51.72;23.13;;;1.60;99.90;;;;;;4983579;28;20133;-78
2021/01/22 22:50:55;;;;;;;58.13;24.75;;;1.60;99.90;;;;;;4984875;28;20056;-78
2021/01/22 22:53:22;;;;;;;49.60;22.52;;;1.50;99.90;;;;;;4983841;28;20105;-78
2021/01/22 22:55:48;;;;;;;57.95;23.88;;;1.40;99.90;;;;;;4984417;28;20065;-78
2021/01/22 22:58:14;;;;;;;61.58;25.02;;;1.40;99.90;;;;;;4986565;28;20050;-78
2021/01/22 23:00:41;;;;;;;49.17;22.98;;;1.30;99.90;;;;;;4978981;28;20054;-79
2021/01/22 23:03:07;;;;;;;54.58;24.55;;;1.30;99.90;;;;;;4966817;28;20604;-79
2021/01/22 23:05:33;;;;;;;52.33;23.10;;;1.30;99.90;;;;;;4974360;28;20402;-79
2021/01/22 23:08:02;;;;;;;57.08;24.80;;;1.20;99.90;;;;;;4979599;28;20046;-78
2021/01/22 23:10:28;;;;;;;52.20;22.52;;;1.20;99.90;;;;;;4980934;28;20046;-78
2021/01/22 23:12:54;;;;;;;59.05;24.33;;;1.20;99.90;;;;;;4982980;28;20057;-78
2021/01/22 23:15:20;;;;;;;48.55;23.92;;;1.10;99.90;;;;;;4984961;28;20383;-78
2021/01/22 23:17:47;;;;;;;48.33;22.65;;;1.10;99.90;;;;;;4982450;28;20045;-78
2021/01/22 23:20:13;;;;;;;47.08;20.27;;;1.10;99.90;;;;;;4979350;28;20061;-78
2021/01/22 23:22:40;;;;;;;50.45;22.42;;;1.00;99.90;;;;;;4981107;28;20071;-78
2021/01/22 23:25:15;;;;;;;47.38;20.95;;;1.00;99.90;;;;;;4983555;28;20088;-78
2021/01/22 23:27:42;;;;;;;45.13;20.80;;;1.00;99.90;;;;;;4978036;28;20061;-78
2021/01/22 23:30:11;;;;;;;47.75;20.90;;;1.00;99.90;;;;;;4978713;28;20077;-78
2021/01/22 23:32:38;;;;;;;59.42;21.42;;;0.90;99.90;;;;;;4972974;28;20062;-77
2021/01/22 23:35:06;;;;;;;59.20;22.25;;;0.90;99.90;;;;;;4976803;28;20125;-77
2021/01/22 23:37:36;;;;;;;51.25;22.35;;;0.90;99.90;;;;;;4982920;28;20562;-78
2021/01/22 23:40:07;;;;;;;50.85;21.48;;;0.90;99.90;;;;;;4979486;28;20106;-77
2021/01/22 23:42:34;;;;;;;52.80;21.05;;;0.90;99.90;;;;;;4975620;28;20051;-78
2021/01/22 23:45:01;;;;;;;50.58;22.60;;;0.90;99.90;;;;;;4976968;28;20467;-77
2021/01/22 23:47:30;;;;;;;51.90;21.88;;;0.90;99.90;;;;;;4979085;28;20078;-78
2021/01/22 23:49:57;;;;;;;50.40;21.45;;;0.90;99.90;;;;;;4975705;28;20042;-78
2021/01/22 23:52:23;;;;;;;57.60;22.25;;;0.90;99.90;;;;;;4982466;28;20068;-78
2021/01/22 23:54:49;;;;;;;48.42;22.42;;;0.90;99.90;;;;;;4985029;28;20046;-78
2021/01/22 23:57:16;;;;;;;58.83;22.48;;;0.90;99.90;;;;;;4985224;28;20065;-78
2021/01/22 23:59:42;;;;;;;53.45;22.10;;;0.80;99.90;;;;;;4984600;28;20054;-78
